createdAt,value
2018-12-09T00:02:20.167Z,10.70
2018-12-09T00:04:47.754Z,11.10
2018-12-09T00:07:15.182Z,11.30
2018-12-09T00:09:42.635Z,11.00
2018-12-09T00:12:10.103Z,11.30
2018-12-09T00:14:37.571Z,11.30
2018-12-09T00:17:05.026Z,11.20
2018-12-09T00:19:32.463Z,10.80
2018-12-09T00:21:59.942Z,11.20
2018-12-09T00:24:27.397Z,11.20
2018-12-09T00:26:54.863Z,11.20
2018-12-09T00:29:22.295Z,11.20
2018-12-09T00:31:49.765Z,11.50
2018-12-09T00:34:17.206Z,11.20
2018-12-09T00:36:44.689Z,10.60
2018-12-09T00:39:12.254Z,10.50
2018-12-09T00:41:39.705Z,10.60
2018-12-09T00:44:07.182Z,10.40
2018-12-09T00:46:34.699Z,10.60
2018-12-09T00:49:02.226Z,10.60
2018-12-09T00:51:29.746Z,10.50
2018-12-09T00:53:57.234Z,10.30
2018-12-09T00:56:25.475Z,10.30
2018-12-09T00:58:52.939Z,10.00
2018-12-09T01:01:20.405Z,10.20
2018-12-09T01:03:47.866Z,10.10
2018-12-09T01:06:15.405Z,9.90
2018-12-09T01:08:42.865Z,9.40
2018-12-09T01:11:10.290Z,9.10
2018-12-09T01:13:37.794Z,9.10
2018-12-09T01:16:05.348Z,9.40
2018-12-09T01:18:32.912Z,9.60
2018-12-09T01:21:00.350Z,9.30
2018-12-09T01:23:27.773Z,9.90
2018-12-09T01:25:55.224Z,10.00
2018-12-09T01:28:22.839Z,8.50
2018-12-09T01:30:50.373Z,10.10
2018-12-09T01:33:17.909Z,10.10
2018-12-09T01:35:45.346Z,10.00
2018-12-09T01:38:12.776Z,10.00
2018-12-09T01:40:45.895Z,10.40
2018-12-09T01:43:13.357Z,10.30
2018-12-09T01:45:40.875Z,10.10
2018-12-09T01:48:08.370Z,10.30
2018-12-09T01:50:35.842Z,10.20
2018-12-09T01:56:23.547Z,10.20
2018-12-09T01:58:51.066Z,10.20
2018-12-09T02:01:18.499Z,10.20
2018-12-09T02:03:45.949Z,10.20
2018-12-09T02:06:13.401Z,9.70
2018-12-09T02:08:40.835Z,10.00
2018-12-09T02:11:08.287Z,10.20
2018-12-09T02:13:35.846Z,10.20
2018-12-09T02:16:03.367Z,9.90
2018-12-09T02:18:30.813Z,10.00
2018-12-09T02:20:58.745Z,10.40
2018-12-09T02:23:26.309Z,10.30
2018-12-09T02:25:53.897Z,10.70
2018-12-09T02:28:21.339Z,10.40
2018-12-09T02:30:48.756Z,10.50
2018-12-09T02:33:16.525Z,10.40
2018-12-09T02:35:47.750Z,10.40
2018-12-09T02:38:15.206Z,10.30
2018-12-09T02:40:42.719Z,10.60
2018-12-09T02:43:10.241Z,10.30
2018-12-09T02:45:37.772Z,10.50
2018-12-09T02:48:05.379Z,10.50
2018-12-09T02:50:32.836Z,10.80
2018-12-09T02:53:00.326Z,10.60
2018-12-09T02:55:28.147Z,10.70
2018-12-09T02:57:55.904Z,10.40
2018-12-09T03:00:23.492Z,10.10
2018-12-09T03:02:50.988Z,10.50
2018-12-09T03:05:18.603Z,10.60
2018-12-09T03:07:46.383Z,10.50
2018-12-09T03:10:13.896Z,10.50
2018-12-09T03:12:41.526Z,10.60
2018-12-09T03:15:09.141Z,11.00
2018-12-09T03:17:36.713Z,11.10
2018-12-09T03:20:04.479Z,11.00
2018-12-09T03:22:32.039Z,10.70
2018-12-09T03:24:59.552Z,10.90
2018-12-09T03:27:27.063Z,10.70
2018-12-09T03:29:54.615Z,10.80
2018-12-09T03:32:22.033Z,10.80
2018-12-09T03:34:49.771Z,10.40
2018-12-09T03:37:17.213Z,10.60
2018-12-09T03:39:44.744Z,10.90
2018-12-09T03:42:12.193Z,11.10
2018-12-09T03:44:39.747Z,11.10
2018-12-09T03:47:07.320Z,10.80
2018-12-09T03:49:34.834Z,11.00
2018-12-09T03:52:02.354Z,10.80
2018-12-09T03:54:29.895Z,10.70
2018-12-09T03:56:57.380Z,10.70
2018-12-09T03:59:25.766Z,10.80
2018-12-09T04:01:53.276Z,10.70
2018-12-09T04:04:20.876Z,10.70
2018-12-09T04:06:48.430Z,11.00
2018-12-09T04:09:15.869Z,10.70
2018-12-09T04:11:43.373Z,10.50
2018-12-09T04:14:10.905Z,10.40
2018-12-09T04:16:38.682Z,10.50
2018-12-09T04:19:06.232Z,10.70
2018-12-09T04:21:33.745Z,10.90
2018-12-09T04:24:01.295Z,10.90
2018-12-09T04:26:28.916Z,10.90
2018-12-09T04:28:56.366Z,10.60
2018-12-09T04:31:23.823Z,10.60
2018-12-09T04:33:51.506Z,10.20
2018-12-09T04:36:19.046Z,10.50
2018-12-09T04:38:46.487Z,10.60
2018-12-09T04:41:13.946Z,10.30
2018-12-09T04:43:41.483Z,10.80
2018-12-09T04:46:08.912Z,10.70
2018-12-09T04:48:36.346Z,10.90
2018-12-09T04:51:03.894Z,10.40
2018-12-09T04:53:31.458Z,10.40
2018-12-09T04:55:58.987Z,10.70
2018-12-09T04:58:26.474Z,10.80
2018-12-09T05:00:54.938Z,11.00
2018-12-09T05:03:22.591Z,11.00
2018-12-09T05:05:50.064Z,10.20
2018-12-09T05:08:17.595Z,10.30
2018-12-09T05:10:45.141Z,10.50
2018-12-09T05:13:12.664Z,10.40
2018-12-09T05:15:40.236Z,10.60
2018-12-09T05:18:07.796Z,10.20
2018-12-09T05:20:35.343Z,9.70
2018-12-09T05:23:03.010Z,10.10
2018-12-09T05:25:30.603Z,10.10
2018-12-09T05:27:58.018Z,10.40
2018-12-09T05:30:26.134Z,10.50
2018-12-09T05:32:53.549Z,10.90
2018-12-09T05:35:21.265Z,10.90
2018-12-09T05:37:48.769Z,10.40
2018-12-09T05:40:16.309Z,9.90
2018-12-09T05:42:43.806Z,9.90
2018-12-09T05:45:11.250Z,10.20
2018-12-09T05:47:39.058Z,10.10
2018-12-09T05:50:06.626Z,10.70
2018-12-09T05:52:34.049Z,10.80
2018-12-09T05:55:01.487Z,10.20
2018-12-09T05:57:28.990Z,10.30
2018-12-09T05:59:56.904Z,10.00
2018-12-09T06:05:27.542Z,10.10
2018-12-09T06:07:55.030Z,10.20
2018-12-09T06:10:22.541Z,10.10
2018-12-09T06:12:49.999Z,10.10
2018-12-09T06:15:17.695Z,10.10
2018-12-09T06:17:45.138Z,10.30
2018-12-09T06:20:12.723Z,10.00
2018-12-09T06:22:40.238Z,10.50
2018-12-09T06:25:07.723Z,10.30
2018-12-09T06:27:35.270Z,10.50
2018-12-09T06:30:02.759Z,10.50
2018-12-09T06:32:30.563Z,10.70
2018-12-09T06:34:58.060Z,10.40
2018-12-09T06:37:26.173Z,10.40
2018-12-09T06:39:53.690Z,10.30
2018-12-09T06:42:21.257Z,10.00
2018-12-09T06:44:49.066Z,10.50
2018-12-09T06:47:16.519Z,10.50
2018-12-09T06:49:43.979Z,9.90
2018-12-09T06:52:11.413Z,9.90
2018-12-09T06:54:38.840Z,9.90
2018-12-09T06:57:06.389Z,9.80
2018-12-09T06:59:33.895Z,9.60
2018-12-09T07:02:01.333Z,9.90
2018-12-09T07:04:28.764Z,10.20
2018-12-09T07:06:56.290Z,10.20
2018-12-09T07:09:23.811Z,10.40
2018-12-09T07:11:51.555Z,10.10
2018-12-09T07:14:18.978Z,9.90
2018-12-09T07:16:46.494Z,10.00
2018-12-09T07:19:14.010Z,10.00
2018-12-09T07:21:41.622Z,10.70
2018-12-09T07:24:09.088Z,10.20
2018-12-09T07:26:36.613Z,10.10
2018-12-09T07:29:04.197Z,9.70
2018-12-09T07:31:31.664Z,9.80
2018-12-09T07:33:59.206Z,9.80
2018-12-09T07:36:26.718Z,10.00
2018-12-09T07:38:54.258Z,10.20
2018-12-09T07:41:21.790Z,9.90
2018-12-09T07:43:49.295Z,10.10
2018-12-09T07:46:16.810Z,10.10
2018-12-09T07:48:44.387Z,10.20
2018-12-09T07:51:12.226Z,10.50
2018-12-09T07:53:39.728Z,10.50
2018-12-09T07:56:07.259Z,10.10
2018-12-09T07:58:34.715Z,10.50
2018-12-09T08:01:02.178Z,10.20
2018-12-09T08:03:29.630Z,10.40
2018-12-09T08:05:57.077Z,10.20
2018-12-09T08:08:24.497Z,10.10
2018-12-09T08:10:51.919Z,9.80
2018-12-09T08:13:19.455Z,10.20
2018-12-09T08:15:46.886Z,10.30
2018-12-09T08:18:14.380Z,10.60
2018-12-09T08:20:41.835Z,10.40
2018-12-09T08:23:09.393Z,10.10
2018-12-09T08:25:36.858Z,10.20
2018-12-09T08:28:04.314Z,10.80
2018-12-09T08:30:31.761Z,10.40
2018-12-09T08:32:59.230Z,10.20
2018-12-09T08:35:26.657Z,10.20
2018-12-09T08:37:54.133Z,10.40
2018-12-09T08:40:21.582Z,11.00
2018-12-09T08:42:49.053Z,10.80
2018-12-09T08:45:16.631Z,10.80
2018-12-09T08:47:44.092Z,10.20
2018-12-09T08:50:11.552Z,10.20
2018-12-09T08:52:38.989Z,10.40
2018-12-09T08:55:06.542Z,10.00
2018-12-09T08:57:34.002Z,10.40
2018-12-09T09:00:01.467Z,10.60
2018-12-09T09:02:28.897Z,10.20
2018-12-09T09:04:56.333Z,10.10
2018-12-09T09:07:23.834Z,9.90
2018-12-09T09:09:51.294Z,9.80
2018-12-09T09:12:18.745Z,9.70
2018-12-09T09:14:46.182Z,10.10
2018-12-09T09:17:13.628Z,10.20
2018-12-09T09:19:41.065Z,10.00
2018-12-09T09:22:08.511Z,9.70
2018-12-09T09:24:36.034Z,9.50
2018-12-09T09:27:03.574Z,8.90
2018-12-09T09:29:31.000Z,9.00
2018-12-09T09:31:58.428Z,9.00
2018-12-09T09:34:26.547Z,9.10
2018-12-09T09:36:53.971Z,9.40
2018-12-09T09:39:21.394Z,9.40
2018-12-09T09:41:48.859Z,9.50
2018-12-09T09:44:16.318Z,9.00
2018-12-09T09:46:43.733Z,9.40
2018-12-09T09:49:11.165Z,9.40
2018-12-09T09:51:38.688Z,9.50
2018-12-09T09:54:06.139Z,9.80
2018-12-09T09:56:33.606Z,10.20
2018-12-09T09:59:01.061Z,9.70
2018-12-09T10:01:28.518Z,10.10
2018-12-09T10:03:57.295Z,10.30
2018-12-09T10:06:25.138Z,10.20
2018-12-09T10:08:52.634Z,10.10
2018-12-09T10:11:20.143Z,10.20
2018-12-09T10:13:47.643Z,10.50
2018-12-09T10:16:15.209Z,10.70
2018-12-09T10:18:42.665Z,10.60
2018-12-09T10:21:10.114Z,10.50
2018-12-09T10:23:37.607Z,10.80
2018-12-09T10:26:05.242Z,10.60
2018-12-09T10:28:32.852Z,10.20
2018-12-09T10:31:00.302Z,9.80
2018-12-09T10:33:27.724Z,9.40
2018-12-09T10:35:55.173Z,9.90
2018-12-09T10:38:22.615Z,10.20
2018-12-09T10:40:50.048Z,10.30
2018-12-09T10:43:17.483Z,10.70
2018-12-09T10:45:44.933Z,10.50
2018-12-09T10:48:12.362Z,10.70
2018-12-09T10:50:39.946Z,10.60
2018-12-09T10:53:07.383Z,10.80
2018-12-09T10:55:34.817Z,10.40
2018-12-09T10:58:02.293Z,10.50
2018-12-09T11:00:35.465Z,10.00
2018-12-09T11:03:02.958Z,9.60
2018-12-09T11:05:30.503Z,9.60
2018-12-09T11:07:57.924Z,9.00
2018-12-09T11:10:25.366Z,9.00
2018-12-09T11:12:52.790Z,9.00
2018-12-09T11:15:20.238Z,9.10
2018-12-09T11:17:47.678Z,9.50
2018-12-09T11:20:15.122Z,9.50
2018-12-09T11:22:43.000Z,10.00
2018-12-09T11:25:10.807Z,10.20
2018-12-09T11:27:38.245Z,10.40
2018-12-09T11:30:06.515Z,10.30
2018-12-09T11:32:33.982Z,10.40
2018-12-09T11:35:01.467Z,10.70
2018-12-09T11:37:28.889Z,11.00
2018-12-09T11:39:56.354Z,11.00
2018-12-09T11:42:23.813Z,9.90
2018-12-09T11:44:51.353Z,9.90
2018-12-09T11:47:18.801Z,10.00
2018-12-09T11:49:46.273Z,10.30
2018-12-09T11:52:13.737Z,10.30
2018-12-09T11:54:41.206Z,10.30
2018-12-09T11:57:08.651Z,10.30
2018-12-09T11:59:36.118Z,10.80
2018-12-09T12:02:03.605Z,10.60
2018-12-09T12:04:31.041Z,10.70
2018-12-09T12:06:58.551Z,10.80
2018-12-09T12:09:26.990Z,9.70
2018-12-09T12:11:54.409Z,10.30
2018-12-09T12:14:21.847Z,10.60
2018-12-09T12:16:49.279Z,10.60
2018-12-09T12:19:16.794Z,10.60
2018-12-09T12:21:44.226Z,10.60
2018-12-09T12:24:11.659Z,10.40
2018-12-09T12:26:39.182Z,10.80
2018-12-09T12:29:06.674Z,10.80
2018-12-09T12:31:34.086Z,11.00
2018-12-09T12:34:01.551Z,10.80
2018-12-09T12:36:28.984Z,10.50
2018-12-09T12:38:56.406Z,10.10
2018-12-09T12:41:23.906Z,10.10
2018-12-09T12:43:51.520Z,10.30
2018-12-09T12:46:18.955Z,10.80
2018-12-09T12:48:46.393Z,10.80
2018-12-09T12:51:13.849Z,11.00
2018-12-09T12:53:41.333Z,10.80
2018-12-09T12:56:08.778Z,10.70
2018-12-09T12:58:36.243Z,10.70
2018-12-09T13:01:03.722Z,10.70
2018-12-09T13:03:31.154Z,10.90
2018-12-09T13:05:58.889Z,11.30
2018-12-09T13:08:27.123Z,11.80
2018-12-09T13:10:54.635Z,12.00
2018-12-09T13:13:22.229Z,11.80
2018-12-09T13:15:49.700Z,11.80
2018-12-09T13:18:17.156Z,11.40
2018-12-09T13:20:44.573Z,11.50
2018-12-09T13:23:12.067Z,11.10
2018-12-09T13:25:39.556Z,11.20
2018-12-09T13:28:07.044Z,10.90
2018-12-09T13:30:34.470Z,10.90
2018-12-09T13:33:01.945Z,10.40
2018-12-09T13:35:29.443Z,10.40
2018-12-09T13:37:56.879Z,10.90
2018-12-09T13:40:24.318Z,10.70
2018-12-09T13:42:51.817Z,11.10
2018-12-09T13:45:19.276Z,11.00
2018-12-09T13:47:46.734Z,11.40
2018-12-09T13:50:14.266Z,11.40
2018-12-09T13:52:41.698Z,10.80
2018-12-09T13:55:09.195Z,11.10
2018-12-09T13:57:36.613Z,11.00
2018-12-09T14:00:07.691Z,10.70
2018-12-09T14:02:35.150Z,10.90
2018-12-09T14:05:02.836Z,10.70
2018-12-09T14:07:30.269Z,10.60
2018-12-09T14:09:57.720Z,10.80
2018-12-09T14:12:25.162Z,11.00
2018-12-09T14:14:52.684Z,11.00
2018-12-09T14:17:20.215Z,10.10
2018-12-09T14:19:47.635Z,10.50
2018-12-09T14:22:15.801Z,10.40
2018-12-09T14:24:43.371Z,10.80
2018-12-09T14:27:13.212Z,10.80
2018-12-09T14:29:40.342Z,11.20
2018-12-09T14:32:08.010Z,11.20
2018-12-09T14:34:35.522Z,11.20
2018-12-09T14:37:02.951Z,11.40
2018-12-09T14:39:30.386Z,11.10
2018-12-09T14:41:57.818Z,10.80
2018-12-09T14:44:25.246Z,11.00
2018-12-09T14:46:52.704Z,11.30
2018-12-09T14:49:20.134Z,11.00
2018-12-09T14:51:47.557Z,11.60
2018-12-09T14:54:15.028Z,11.60
2018-12-09T14:56:42.473Z,11.90
2018-12-09T14:59:09.898Z,11.70
2018-12-09T15:01:37.328Z,11.40
2018-12-09T15:04:04.745Z,11.20
2018-12-09T15:06:32.222Z,10.90
2018-12-09T15:08:59.775Z,11.20
2018-12-09T15:11:27.466Z,11.60
2018-12-09T15:13:54.924Z,11.60
2018-12-09T15:16:22.382Z,11.20
2018-12-09T15:18:49.904Z,11.50
2018-12-09T15:21:17.366Z,11.30
2018-12-09T15:23:44.799Z,11.10
2018-12-09T15:26:12.255Z,11.10
2018-12-09T15:28:39.686Z,11.40
2018-12-09T15:31:07.216Z,11.20
2018-12-09T15:33:34.650Z,11.30
2018-12-09T15:36:02.214Z,10.60
2018-12-09T15:38:29.654Z,10.50
2018-12-09T15:40:57.089Z,10.10
2018-12-09T15:43:24.526Z,10.30
2018-12-09T15:45:51.991Z,10.20
2018-12-09T15:48:19.528Z,10.40
2018-12-09T15:50:47.286Z,10.50
2018-12-09T15:53:14.825Z,10.30
2018-12-09T15:55:42.290Z,10.10
2018-12-09T15:58:09.721Z,10.10
2018-12-09T16:00:39.088Z,10.10
2018-12-09T16:03:06.554Z,10.00
2018-12-09T16:05:33.970Z,9.90
2018-12-09T16:08:01.422Z,10.30
2018-12-09T16:10:28.843Z,10.20
2018-12-09T16:12:56.349Z,10.10
2018-12-09T16:15:23.773Z,10.30
2018-12-09T16:17:51.209Z,10.30
2018-12-09T16:20:18.706Z,10.50
2018-12-09T16:22:46.261Z,10.30
2018-12-09T16:25:13.828Z,10.40
2018-12-09T16:27:41.261Z,10.40
2018-12-09T16:30:08.741Z,10.50
2018-12-09T16:32:36.285Z,10.50
2018-12-09T16:35:04.750Z,10.00
2018-12-09T16:37:32.241Z,10.10
2018-12-09T16:39:59.810Z,9.90
2018-12-09T16:42:27.567Z,9.40
2018-12-09T16:44:55.015Z,9.50
2018-12-09T16:47:22.445Z,9.70
2018-12-09T16:49:49.948Z,9.90
2018-12-09T16:52:17.362Z,9.70
2018-12-09T16:54:44.795Z,9.80
2018-12-09T16:57:12.217Z,9.70
2018-12-09T16:59:39.647Z,9.50
2018-12-09T17:02:07.099Z,9.60
2018-12-09T17:04:34.516Z,9.40
2018-12-09T17:07:01.938Z,9.70
2018-12-09T17:09:29.381Z,9.50
2018-12-09T17:11:56.863Z,9.60
2018-12-09T17:14:24.311Z,9.50
2018-12-09T17:16:51.757Z,9.40
2018-12-09T17:19:19.238Z,9.40
2018-12-09T17:21:46.686Z,9.30
2018-12-09T17:24:14.133Z,9.60
2018-12-09T17:26:41.602Z,9.40
2018-12-09T17:29:09.337Z,9.80
2018-12-09T17:31:36.821Z,9.70
2018-12-09T17:34:04.253Z,9.90
2018-12-09T17:36:31.745Z,9.60
2018-12-09T17:38:59.191Z,9.80
2018-12-09T17:41:27.544Z,10.50
2018-12-09T17:43:55.014Z,10.10
2018-12-09T17:46:22.467Z,10.30
2018-12-09T17:48:49.920Z,10.00
2018-12-09T17:51:17.402Z,10.30
2018-12-09T17:53:44.862Z,10.00
2018-12-09T17:56:12.281Z,10.30
2018-12-09T17:58:39.727Z,10.10
2018-12-09T18:01:09.103Z,9.90
2018-12-09T18:03:36.539Z,10.00
2018-12-09T18:06:04.082Z,10.50
2018-12-09T18:08:31.502Z,10.80
2018-12-09T18:11:00.476Z,9.90
2018-12-09T18:13:28.041Z,9.40
2018-12-09T18:15:59.906Z,9.50
2018-12-09T18:18:27.834Z,10.10
2018-12-09T18:20:55.370Z,9.70
2018-12-09T18:23:22.845Z,9.60
2018-12-09T18:25:50.312Z,9.50
2018-12-09T18:28:17.738Z,9.30
2018-12-09T18:30:45.186Z,9.50
2018-12-09T18:33:12.686Z,9.30
2018-12-09T18:35:40.333Z,9.20
2018-12-09T18:38:08.110Z,9.10
2018-12-09T18:40:35.642Z,9.40
2018-12-09T18:43:03.127Z,9.20
2018-12-09T18:45:30.564Z,9.10
2018-12-09T18:47:57.992Z,8.70
2018-12-09T18:50:25.625Z,9.00
2018-12-09T18:52:53.045Z,8.50
2018-12-09T18:55:20.518Z,8.60
2018-12-09T18:57:48.081Z,8.90
2018-12-09T19:00:15.543Z,8.80
2018-12-09T19:02:42.981Z,9.10
2018-12-09T19:05:10.396Z,9.40
2018-12-09T19:07:37.819Z,9.10
2018-12-09T19:10:05.575Z,9.00
2018-12-09T19:12:33.107Z,9.10
2018-12-09T19:15:00.594Z,9.10
2018-12-09T19:17:28.151Z,9.00
2018-12-09T19:19:55.577Z,8.80
2018-12-09T19:22:23.066Z,8.90
2018-12-09T19:24:50.599Z,9.20
2018-12-09T19:27:18.041Z,8.90
2018-12-09T19:29:45.549Z,9.00
2018-12-09T19:32:13.002Z,9.00
2018-12-09T19:34:40.567Z,8.90
2018-12-09T19:37:08.017Z,8.90
2018-12-09T19:39:35.479Z,8.90
2018-12-09T19:42:03.029Z,9.00
2018-12-09T19:44:30.594Z,9.00
2018-12-09T19:46:58.149Z,8.90
2018-12-09T19:49:25.707Z,9.00
2018-12-09T19:51:53.130Z,9.00
2018-12-09T19:54:20.582Z,8.70
2018-12-09T19:56:48.013Z,9.00
2018-12-09T19:59:15.449Z,9.10
2018-12-09T20:01:43.025Z,9.30
2018-12-09T20:04:10.483Z,9.00
2018-12-09T20:06:37.932Z,8.70
2018-12-09T20:09:05.734Z,8.80
2018-12-09T20:11:33.249Z,8.50
2018-12-09T20:14:00.671Z,8.40
2018-12-09T20:16:28.153Z,8.30
2018-12-09T20:18:55.614Z,8.70
2018-12-09T20:21:24.104Z,8.60
2018-12-09T20:23:51.554Z,8.50
2018-12-09T20:26:18.997Z,8.70
2018-12-09T20:28:46.405Z,8.80
2018-12-09T20:31:13.944Z,8.70
2018-12-09T20:33:41.390Z,9.00
2018-12-09T20:36:08.826Z,9.20
2018-12-09T20:38:36.298Z,9.10
2018-12-09T20:41:03.782Z,9.40
2018-12-09T20:43:31.217Z,9.40
2018-12-09T20:45:58.630Z,9.20
2018-12-09T20:48:26.055Z,9.50
2018-12-09T20:50:53.687Z,9.10
2018-12-09T20:53:21.186Z,9.20
2018-12-09T20:55:48.707Z,9.10
2018-12-09T20:58:16.161Z,8.90
2018-12-09T21:00:43.617Z,9.00
2018-12-09T21:03:11.086Z,8.60
2018-12-09T21:05:38.533Z,9.10
2018-12-09T21:08:05.995Z,9.30
2018-12-09T21:10:33.454Z,8.90
2018-12-09T21:13:00.922Z,8.90
2018-12-09T21:15:28.474Z,9.10
2018-12-09T21:17:55.907Z,9.00
2018-12-09T21:20:23.391Z,9.30
2018-12-09T21:22:50.868Z,9.50
2018-12-09T21:25:18.403Z,8.90
2018-12-09T21:27:45.863Z,8.80
2018-12-09T21:30:13.297Z,8.20
2018-12-09T21:32:40.724Z,8.70
2018-12-09T21:35:08.184Z,8.50
2018-12-09T21:37:35.610Z,8.80
2018-12-09T21:40:03.490Z,8.90
2018-12-09T21:42:30.922Z,9.00
2018-12-09T21:44:58.406Z,8.80
2018-12-09T21:47:25.849Z,8.50
2018-12-09T21:49:53.299Z,8.60
2018-12-09T21:52:20.727Z,8.30
2018-12-09T21:54:48.145Z,8.50
2018-12-09T21:57:15.624Z,8.90
2018-12-09T21:59:43.028Z,8.70
2018-12-09T22:02:10.466Z,8.20
2018-12-09T22:04:37.908Z,8.20
2018-12-09T22:07:05.387Z,8.90
2018-12-09T22:09:32.851Z,8.60
2018-12-09T22:12:00.284Z,8.50
2018-12-09T22:14:28.424Z,8.60
2018-12-09T22:16:55.947Z,8.60
2018-12-09T22:19:23.362Z,8.80
2018-12-09T22:21:50.786Z,8.90
2018-12-09T22:24:18.236Z,8.60
2018-12-09T22:26:45.653Z,8.40
2018-12-09T22:29:13.075Z,8.10
2018-12-09T22:31:40.515Z,8.50
2018-12-09T22:34:08.043Z,8.40
2018-12-09T22:36:35.502Z,8.30
2018-12-09T22:39:04.487Z,8.50
2018-12-09T22:41:31.941Z,8.30
2018-12-09T22:43:59.357Z,8.60
2018-12-09T22:46:26.862Z,8.70
2018-12-09T22:48:54.314Z,8.40
2018-12-09T22:51:21.773Z,8.50
2018-12-09T22:53:49.190Z,8.50
2018-12-09T22:56:16.700Z,8.70
2018-12-09T22:58:44.203Z,8.90
2018-12-09T23:01:19.130Z,8.50
2018-12-09T23:03:46.797Z,8.40
2018-12-09T23:06:14.258Z,8.00
2018-12-09T23:08:41.662Z,8.30
2018-12-09T23:11:09.103Z,8.10
2018-12-09T23:13:36.579Z,8.10
2018-12-09T23:16:04.066Z,8.30
2018-12-09T23:18:31.522Z,8.40
2018-12-09T23:20:59.054Z,8.40
2018-12-09T23:23:26.487Z,8.20
2018-12-09T23:25:53.933Z,8.20
2018-12-09T23:28:21.435Z,8.50
2018-12-09T23:30:48.854Z,8.90
2018-12-09T23:33:16.314Z,8.50
2018-12-09T23:35:43.927Z,8.40
2018-12-09T23:38:11.368Z,8.50
2018-12-09T23:40:38.833Z,8.50
2018-12-09T23:43:06.272Z,8.40
2018-12-09T23:45:33.737Z,8.60
2018-12-09T23:48:01.196Z,8.70
2018-12-09T23:50:28.646Z,8.30
2018-12-09T23:52:56.075Z,8.40
2018-12-09T23:55:23.562Z,8.30
2018-12-09T23:57:51.018Z,8.90
